createdAt,value
2022-10-30T00:00:39.701Z,9.711718
2022-10-30T00:01:39.727Z,9.711823
2022-10-30T00:02:39.711Z,9.711891
2022-10-30T00:03:39.672Z,9.711628
2022-10-30T00:04:39.673Z,9.711685
2022-10-30T00:05:39.653Z,9.712107
2022-10-30T00:06:39.645Z,9.712129
2022-10-30T00:07:39.648Z,9.712155
2022-10-30T00:08:39.681Z,9.711784
2022-10-30T00:09:39.627Z,9.712008
2022-10-30T00:10:39.620Z,9.712387
2022-10-30T00:11:39.600Z,9.712474
2022-10-30T00:12:40.610Z,9.712181
2022-10-30T00:13:39.606Z,9.712051
2022-10-30T00:14:39.581Z,9.712106
2022-10-30T00:15:39.585Z,9.712173
2022-10-30T00:16:39.571Z,9.711907
2022-10-30T00:17:39.557Z,9.712152
2022-10-30T00:18:39.562Z,9.712122
2022-10-30T00:19:39.548Z,9.712282
2022-10-30T00:20:40.222Z,9.712334
2022-10-30T00:21:39.534Z,9.712009
2022-10-30T00:22:39.515Z,9.711916
2022-10-30T00:23:39.513Z,9.711845
2022-10-30T00:24:39.539Z,9.711999
2022-10-30T00:25:39.502Z,9.712115
2022-10-30T00:26:39.502Z,9.712116
2022-10-30T00:27:39.475Z,9.712029
2022-10-30T00:34:40.629Z,9.712573
2022-10-30T00:35:40.698Z,9.712192
2022-10-30T00:36:40.610Z,9.712011
2022-10-30T00:37:40.617Z,9.711976
2022-10-30T00:38:40.607Z,9.711923
2022-10-30T00:39:40.601Z,9.711926
2022-10-30T00:40:40.580Z,9.711946
2022-10-30T00:41:40.572Z,9.712149
2022-10-30T00:42:40.575Z,9.712372
2022-10-30T00:43:40.580Z,9.712374
2022-10-30T00:44:40.606Z,9.712330
2022-10-30T00:45:40.553Z,9.712336
2022-10-30T00:46:40.542Z,9.712111
2022-10-30T00:47:40.533Z,9.712036
2022-10-30T00:48:41.437Z,9.712026
2022-10-30T00:49:40.507Z,9.711658
2022-10-30T00:50:40.499Z,9.711606
2022-10-30T00:51:42.447Z,9.711573
2022-10-30T00:52:40.501Z,9.711855
2022-10-30T00:53:40.480Z,9.711965
2022-10-30T00:54:40.472Z,9.711866
2022-10-30T00:55:40.457Z,9.711989
2022-10-30T00:56:40.456Z,9.711839
2022-10-30T00:57:40.447Z,9.712090
2022-10-30T00:58:40.447Z,9.712134
2022-10-30T00:59:40.446Z,9.712008
2022-10-30T01:00:40.483Z,9.712079
2022-10-30T01:01:40.613Z,9.712282
2022-10-30T01:02:40.461Z,9.712354
2022-10-30T01:03:40.404Z,9.712276
2022-10-30T01:04:40.397Z,9.712122
2022-10-30T01:05:40.410Z,9.712274
2022-10-30T01:06:40.375Z,9.712356
2022-10-30T01:07:40.369Z,9.712478
2022-10-30T01:08:40.441Z,9.712164
2022-10-30T01:09:40.355Z,9.711988
2022-10-30T01:10:40.377Z,9.712213
2022-10-30T01:11:40.394Z,9.711588
2022-10-30T01:12:40.336Z,9.711632
2022-10-30T01:13:40.320Z,9.711665
2022-10-30T01:14:40.314Z,9.711698
2022-10-30T01:15:40.317Z,9.711706
2022-10-30T01:16:40.301Z,9.711677
2022-10-30T01:17:40.304Z,9.711682
2022-10-30T01:18:40.286Z,9.711648
2022-10-30T01:19:40.275Z,9.711670
2022-10-30T01:20:40.277Z,9.711680
2022-10-30T01:21:40.257Z,9.711627
2022-10-30T01:22:40.262Z,9.711606
2022-10-30T01:23:40.276Z,9.711621
2022-10-30T01:24:40.250Z,9.711704
2022-10-30T01:25:40.230Z,9.711677
2022-10-30T01:26:40.225Z,9.711637
2022-10-30T01:27:40.217Z,9.711635
2022-10-30T01:28:40.198Z,9.711613
2022-10-30T01:29:40.197Z,9.711631
2022-10-30T01:30:40.204Z,9.711674
2022-10-30T01:31:40.951Z,9.711659
2022-10-30T01:32:40.185Z,9.711694
2022-10-30T01:33:40.168Z,9.711705
2022-10-30T01:34:40.156Z,9.711695
2022-10-30T01:35:40.148Z,9.711734
2022-10-30T01:36:40.145Z,9.711613
2022-10-30T01:37:40.136Z,9.711637
2022-10-30T01:38:40.126Z,9.711664
2022-10-30T01:39:40.115Z,9.711664
2022-10-30T01:40:40.126Z,9.711668
2022-10-30T01:41:40.102Z,9.711689
2022-10-30T01:42:40.088Z,9.711635
2022-10-30T01:43:40.079Z,9.711657
2022-10-30T01:44:40.080Z,9.711690
2022-10-30T01:45:40.074Z,9.711679
2022-10-30T01:46:40.057Z,9.711662
2022-10-30T01:47:40.056Z,9.711676
2022-10-30T01:48:40.048Z,9.711656
2022-10-30T01:49:40.042Z,9.711652
2022-10-30T01:50:40.024Z,9.711662
2022-10-30T01:51:40.033Z,9.711617
2022-10-30T01:52:40.126Z,9.711706
2022-10-30T01:53:40.562Z,9.711645
2022-10-30T01:54:40.020Z,9.711701
2022-10-30T01:55:39.981Z,9.711649
2022-10-30T01:56:39.982Z,9.711619
2022-10-30T01:57:39.976Z,9.711575
2022-10-30T01:58:39.970Z,9.711690
2022-10-30T01:59:39.956Z,9.711709
2022-10-30T02:00:39.961Z,9.711785
2022-10-30T02:01:40.137Z,9.711670
2022-10-30T02:02:40.018Z,9.711694
2022-10-30T02:03:39.932Z,9.711411
2022-10-30T02:04:39.914Z,9.711530
2022-10-30T02:05:39.907Z,9.711623
2022-10-30T02:06:39.896Z,9.711713
2022-10-30T02:07:39.896Z,9.711656
2022-10-30T02:08:39.876Z,9.711647
2022-10-30T02:09:39.873Z,9.711744
2022-10-30T02:10:39.859Z,9.711541
2022-10-30T02:11:39.874Z,9.711548
2022-10-30T02:12:39.852Z,9.711707
2022-10-30T02:13:39.834Z,9.711342
2022-10-30T02:14:39.835Z,9.711540
2022-10-30T02:15:39.815Z,9.711606
2022-10-30T02:16:39.821Z,9.711395
2022-10-30T02:17:39.806Z,9.711199
2022-10-30T02:18:39.847Z,9.711211
2022-10-30T02:19:39.797Z,9.711210
2022-10-30T02:20:39.774Z,9.711309
2022-10-30T02:21:39.774Z,9.711123
2022-10-30T02:22:39.862Z,9.711326
2022-10-30T02:23:39.762Z,9.711148
2022-10-30T02:24:39.753Z,9.711397
2022-10-30T02:25:39.739Z,9.711599
2022-10-30T02:26:39.733Z,9.711765
2022-10-30T02:27:39.736Z,9.711601
2022-10-30T02:28:39.718Z,9.711830
2022-10-30T02:29:39.721Z,9.711703
2022-10-30T02:30:39.700Z,9.711221
2022-10-30T02:31:39.693Z,9.711842
2022-10-30T02:32:39.684Z,9.711592
2022-10-30T02:33:39.692Z,9.711464
2022-10-30T02:34:39.692Z,9.711557
2022-10-30T02:35:39.656Z,9.711576
2022-10-30T02:36:39.651Z,9.711531
2022-10-30T02:37:39.654Z,9.711543
2022-10-30T02:38:39.686Z,9.711550
2022-10-30T02:39:40.577Z,9.711520
2022-10-30T02:40:39.645Z,9.711559
2022-10-30T02:41:39.623Z,9.711566
2022-10-30T02:42:39.603Z,9.711559
2022-10-30T02:43:39.606Z,9.711616
2022-10-30T02:44:39.584Z,9.711576
2022-10-30T02:45:39.576Z,9.711596
2022-10-30T02:46:39.565Z,9.711627
2022-10-30T02:47:39.559Z,9.711680
2022-10-30T02:48:39.559Z,9.711711
2022-10-30T02:49:39.542Z,9.711691
2022-10-30T02:50:39.541Z,9.711672
2022-10-30T02:51:39.527Z,9.711618
2022-10-30T02:52:39.511Z,9.711610
2022-10-30T02:53:39.524Z,9.711617
2022-10-30T02:54:39.517Z,9.711680
2022-10-30T02:55:39.494Z,9.711653
2022-10-30T02:56:39.484Z,9.711635
2022-10-30T02:57:39.482Z,9.711648
2022-10-30T02:58:39.489Z,9.711645
2022-10-30T02:59:39.474Z,9.711615
2022-10-30T03:00:39.454Z,9.711592
2022-10-30T03:01:39.552Z,9.711628
2022-10-30T03:02:39.494Z,9.711630
2022-10-30T03:03:39.445Z,9.711647
2022-10-30T03:04:39.422Z,9.711614
2022-10-30T03:05:39.418Z,9.711621
2022-10-30T03:06:39.433Z,9.711628
2022-10-30T03:07:39.427Z,9.711617
2022-10-30T03:08:39.385Z,9.711604
2022-10-30T03:09:39.382Z,9.711626
2022-10-30T03:10:39.383Z,9.711671
2022-10-30T03:11:39.381Z,9.711673
2022-10-30T03:12:39.372Z,9.711655
2022-10-30T03:13:39.354Z,9.711655
2022-10-30T03:14:39.345Z,9.711657
2022-10-30T03:15:39.343Z,9.711637
2022-10-30T03:16:39.324Z,9.711772
2022-10-30T03:18:39.313Z,9.711762
2022-10-30T03:19:39.297Z,9.711777
2022-10-30T03:20:39.291Z,9.711800
2022-10-30T03:21:39.288Z,9.711927
2022-10-30T03:22:40.065Z,9.711910
2022-10-30T03:23:39.276Z,9.711781
2022-10-30T03:24:39.274Z,9.711754
2022-10-30T03:25:39.257Z,9.711748
2022-10-30T03:26:39.247Z,9.711751
2022-10-30T03:27:39.262Z,9.711632
2022-10-30T03:28:39.243Z,9.711598
2022-10-30T03:29:39.231Z,9.711515
2022-10-30T03:30:42.019Z,9.711681
2022-10-30T03:31:39.222Z,9.711665
2022-10-30T03:32:39.206Z,9.711595
2022-10-30T03:33:39.196Z,9.711608
2022-10-30T03:34:39.181Z,9.711719
2022-10-30T03:35:39.175Z,9.711719
2022-10-30T03:36:39.197Z,9.711719
2022-10-30T03:37:39.156Z,9.711719
2022-10-30T03:38:39.152Z,9.711719
2022-10-30T03:39:39.139Z,9.711556
2022-10-30T03:40:39.129Z,9.711600
2022-10-30T03:41:39.136Z,9.711599
2022-10-30T03:42:40.115Z,9.711502
2022-10-30T03:43:39.114Z,9.711585
2022-10-30T03:44:39.104Z,9.711584
2022-10-30T03:45:39.101Z,9.711614
2022-10-30T03:46:39.082Z,9.711676
2022-10-30T03:47:39.080Z,9.711574
2022-10-30T03:48:39.079Z,9.711704
2022-10-30T03:49:39.064Z,9.711799
2022-10-30T03:50:39.051Z,9.711807
2022-10-30T03:51:39.078Z,9.711661
2022-10-30T03:52:39.034Z,9.711567
2022-10-30T03:53:39.030Z,9.711666
2022-10-30T03:54:39.031Z,9.711629
2022-10-30T03:55:39.005Z,9.711731
2022-10-30T03:56:39.020Z,9.711725
2022-10-30T03:57:39.005Z,9.711716
2022-10-30T03:58:38.994Z,9.711651
2022-10-30T03:59:38.997Z,9.711636
2022-10-30T04:00:38.979Z,9.711660
2022-10-30T04:01:39.126Z,9.711644
2022-10-30T04:02:38.967Z,9.711655
2022-10-30T04:03:38.946Z,9.711650
2022-10-30T04:04:38.947Z,9.711626
2022-10-30T04:05:38.961Z,9.711669
2022-10-30T04:06:38.931Z,9.711613
2022-10-30T04:07:39.018Z,9.711568
2022-10-30T04:08:38.935Z,9.711636
2022-10-30T04:09:38.929Z,9.711563
2022-10-30T04:10:38.956Z,9.711677
2022-10-30T04:11:38.885Z,9.711617
2022-10-30T04:12:38.879Z,9.711575
2022-10-30T04:13:39.492Z,9.711585
2022-10-30T04:14:39.611Z,9.711491
2022-10-30T04:15:38.865Z,9.711571
2022-10-30T04:16:39.845Z,9.711547
2022-10-30T04:17:38.849Z,9.711617
2022-10-30T04:18:38.827Z,9.711621
2022-10-30T04:19:38.836Z,9.711614
2022-10-30T04:20:38.819Z,9.711658
2022-10-30T04:21:38.809Z,9.711599
2022-10-30T04:22:38.798Z,9.711635
2022-10-30T04:23:38.788Z,9.711632
2022-10-30T04:24:38.781Z,9.711629
2022-10-30T04:25:38.782Z,9.711589
2022-10-30T04:26:38.774Z,9.711595
2022-10-30T04:27:38.760Z,9.711558
2022-10-30T04:28:38.750Z,9.711646
2022-10-30T04:29:38.738Z,9.711603
2022-10-30T04:30:38.745Z,9.711566
2022-10-30T04:31:38.737Z,9.711537
2022-10-30T04:32:38.716Z,9.711696
2022-10-30T04:33:38.711Z,9.711545
2022-10-30T04:34:38.704Z,9.711591
2022-10-30T04:35:38.689Z,9.711612
2022-10-30T04:36:38.695Z,9.711752
2022-10-30T04:37:38.671Z,9.711779
2022-10-30T04:38:38.665Z,9.711727
2022-10-30T04:39:42.349Z,9.711679
2022-10-30T04:40:40.652Z,9.711706
2022-10-30T04:41:38.692Z,9.711677
2022-10-30T04:42:40.499Z,9.711707
2022-10-30T04:43:38.627Z,9.711684
2022-10-30T04:44:38.630Z,9.711792
2022-10-30T04:45:38.616Z,9.711740
2022-10-30T04:46:39.021Z,9.711913
2022-10-30T04:47:38.592Z,9.712153
2022-10-30T04:48:38.597Z,9.712013
2022-10-30T04:49:38.577Z,9.711807
2022-10-30T04:50:38.574Z,9.711759
2022-10-30T04:51:38.566Z,9.711713
2022-10-30T04:52:38.565Z,9.711700
2022-10-30T04:53:38.550Z,9.711733
2022-10-30T04:54:38.536Z,9.711747
2022-10-30T04:55:38.543Z,9.711669
2022-10-30T04:56:38.527Z,9.711699
2022-10-30T04:57:38.527Z,9.711642
2022-10-30T04:58:39.081Z,9.711679
2022-10-30T04:59:38.501Z,9.711709
2022-10-30T05:00:38.493Z,9.711642
2022-10-30T05:01:38.619Z,9.711643
2022-10-30T05:02:39.226Z,9.711682
2022-10-30T05:03:38.467Z,9.711621
2022-10-30T05:04:38.456Z,9.711666
2022-10-30T05:05:38.484Z,9.711716
2022-10-30T05:06:38.451Z,9.711600
2022-10-30T05:07:38.436Z,9.711543
2022-10-30T05:08:38.440Z,9.711424
2022-10-30T05:09:38.421Z,9.711577
2022-10-30T05:10:39.009Z,9.711617
2022-10-30T05:11:38.414Z,9.711688
2022-10-30T05:12:38.402Z,9.711749
2022-10-30T05:13:38.399Z,9.711798
2022-10-30T05:14:38.395Z,9.711817
2022-10-30T05:15:38.403Z,9.711815
2022-10-30T05:16:38.382Z,9.711712
2022-10-30T05:17:38.370Z,9.711597
2022-10-30T05:18:38.363Z,9.711547
2022-10-30T05:19:38.342Z,9.711616
2022-10-30T05:20:38.336Z,9.711700
2022-10-30T05:21:38.330Z,9.711832
2022-10-30T05:22:38.328Z,9.711768
2022-10-30T05:23:38.327Z,9.711768
2022-10-30T05:24:38.296Z,9.711699
2022-10-30T05:25:39.315Z,9.711658
2022-10-30T05:26:38.287Z,9.711619
2022-10-30T05:27:38.281Z,9.711656
2022-10-30T05:28:38.289Z,9.711842
2022-10-30T05:29:38.267Z,9.711922
2022-10-30T05:30:38.273Z,9.711844
2022-10-30T05:31:38.249Z,9.711788
2022-10-30T05:32:38.258Z,9.711917
2022-10-30T05:33:38.233Z,9.711861
2022-10-30T05:34:38.245Z,9.711791
2022-10-30T05:35:38.228Z,9.711785
2022-10-30T05:36:38.205Z,9.711807
2022-10-30T05:37:38.207Z,9.712175
2022-10-30T05:38:38.189Z,9.712021
2022-10-30T05:39:38.193Z,9.711802
2022-10-30T05:40:38.176Z,9.711781
2022-10-30T05:41:38.177Z,9.711728
2022-10-30T05:42:38.163Z,9.711819
2022-10-30T05:43:38.145Z,9.711828
2022-10-30T05:44:59.281Z,9.711825
2022-10-30T05:45:40.155Z,9.711888
2022-10-30T05:46:38.179Z,9.711709
2022-10-30T05:47:38.119Z,9.711681
2022-10-30T05:48:38.111Z,9.711741
2022-10-30T05:49:38.103Z,9.711719
2022-10-30T05:50:38.104Z,9.711806
2022-10-30T05:51:40.475Z,9.711818
2022-10-30T05:52:38.079Z,9.711770
2022-10-30T05:53:38.081Z,9.711738
2022-10-30T05:54:38.062Z,9.711791
2022-10-30T05:55:38.059Z,9.711820
2022-10-30T05:56:38.046Z,9.711880
2022-10-30T05:57:38.039Z,9.711877
2022-10-30T05:58:38.032Z,9.711964
2022-10-30T05:59:38.030Z,9.711923
2022-10-30T06:00:38.026Z,9.711667
2022-10-30T06:01:38.189Z,9.711580
2022-10-30T06:02:38.069Z,9.711609
2022-10-30T06:03:38.000Z,9.712023
2022-10-30T06:04:37.982Z,9.711915
2022-10-30T06:05:37.989Z,9.711871
2022-10-30T06:06:37.971Z,9.711864
2022-10-30T06:07:37.963Z,9.711821
2022-10-30T06:08:37.953Z,9.711898
2022-10-30T06:09:37.958Z,9.712020
2022-10-30T06:10:37.943Z,9.712054
2022-10-30T06:11:37.931Z,9.711922
2022-10-30T06:12:37.928Z,9.711986
2022-10-30T06:13:37.917Z,9.711701
2022-10-30T06:14:37.904Z,9.711665
2022-10-30T06:15:37.919Z,9.711635
2022-10-30T06:16:37.892Z,9.711647
2022-10-30T06:17:37.888Z,9.711658
2022-10-30T06:18:37.881Z,9.711617
2022-10-30T06:19:37.871Z,9.711660
2022-10-30T06:20:37.876Z,9.711684
2022-10-30T06:21:37.861Z,9.711621
2022-10-30T06:22:37.840Z,9.711635
2022-10-30T06:23:37.845Z,9.711664
2022-10-30T06:24:37.831Z,9.711625
2022-10-30T06:25:40.973Z,9.711705
2022-10-30T06:26:38.832Z,9.711708
2022-10-30T06:27:37.818Z,9.711747
2022-10-30T06:28:37.798Z,9.711656
2022-10-30T06:29:37.802Z,9.711596
2022-10-30T06:30:37.777Z,9.711649
2022-10-30T06:31:37.791Z,9.711659
2022-10-30T06:32:37.759Z,9.711622
2022-10-30T06:33:37.753Z,9.711669
2022-10-30T06:34:37.754Z,9.711532
2022-10-30T06:35:37.736Z,9.711574
2022-10-30T06:36:37.772Z,9.711612
2022-10-30T06:37:37.720Z,9.711658
2022-10-30T06:38:37.737Z,9.711641
2022-10-30T06:39:37.713Z,9.711534
2022-10-30T06:40:37.690Z,9.711557
2022-10-30T06:41:38.696Z,9.711521
2022-10-30T06:42:37.684Z,9.711492
2022-10-30T06:43:37.690Z,9.711504
2022-10-30T06:44:37.664Z,9.711460
2022-10-30T06:45:37.663Z,9.711406
2022-10-30T06:46:37.675Z,9.711439
2022-10-30T06:47:37.648Z,9.711489
2022-10-30T06:48:37.633Z,9.711467
2022-10-30T06:49:37.652Z,9.711520
2022-10-30T06:50:39.532Z,9.711643
2022-10-30T06:51:37.626Z,9.711575
2022-10-30T06:52:37.618Z,9.711559
2022-10-30T06:53:37.618Z,9.711517
2022-10-30T06:54:37.594Z,9.711614
2022-10-30T06:55:37.584Z,9.711587
2022-10-30T06:56:37.583Z,9.711598
2022-10-30T06:57:37.567Z,9.711542
2022-10-30T06:58:37.560Z,9.711568
2022-10-30T06:59:37.553Z,9.711622
2022-10-30T07:00:37.612Z,9.711551
2022-10-30T07:01:37.602Z,9.711574
2022-10-30T07:02:37.532Z,9.711594
2022-10-30T07:03:37.521Z,9.711563
2022-10-30T07:04:37.499Z,9.711597
2022-10-30T07:05:37.506Z,9.711621
2022-10-30T07:06:37.498Z,9.711744
2022-10-30T07:07:37.489Z,9.711708
2022-10-30T07:08:37.468Z,9.711729
2022-10-30T07:09:37.463Z,9.711767
2022-10-30T07:10:40.044Z,9.711972
2022-10-30T07:11:37.446Z,9.711800
2022-10-30T07:12:37.463Z,9.711758
2022-10-30T07:13:37.442Z,9.711802
2022-10-30T07:14:37.424Z,9.711670
2022-10-30T07:15:37.469Z,9.711509
2022-10-30T07:16:37.407Z,9.711825
2022-10-30T07:17:38.001Z,9.711841
2022-10-30T07:18:37.409Z,9.711605
2022-10-30T07:19:37.382Z,9.711675
2022-10-30T07:20:37.994Z,9.711820
2022-10-30T07:21:37.373Z,9.712025
2022-10-30T07:22:37.359Z,9.712230
2022-10-30T07:23:37.348Z,9.711926
2022-10-30T07:24:37.346Z,9.712073
2022-10-30T07:25:37.338Z,9.712245
2022-10-30T07:26:37.328Z,9.711856
2022-10-30T07:27:37.331Z,9.712041
2022-10-30T07:28:37.310Z,9.711839
2022-10-30T07:29:37.311Z,9.711891
2022-10-30T07:30:37.291Z,9.712033
2022-10-30T07:31:42.285Z,9.712044
2022-10-30T07:32:39.277Z,9.712030
2022-10-30T07:33:37.285Z,9.711883
2022-10-30T07:34:37.272Z,9.712153
2022-10-30T07:35:37.259Z,9.712039
2022-10-30T07:36:37.256Z,9.711912
2022-10-30T07:37:37.238Z,9.711652
2022-10-30T07:38:37.243Z,9.711597
2022-10-30T07:39:37.226Z,9.711843
2022-10-30T07:40:37.232Z,9.711786
2022-10-30T07:41:37.216Z,9.711832
2022-10-30T07:42:37.198Z,9.711626
2022-10-30T07:43:37.200Z,9.711661
2022-10-30T07:44:37.183Z,9.711665
2022-10-30T07:45:37.180Z,9.711653
2022-10-30T07:46:37.167Z,9.711779
2022-10-30T07:47:37.151Z,9.711704
2022-10-30T07:48:37.134Z,9.711629
2022-10-30T07:49:38.167Z,9.711850
2022-10-30T07:50:37.140Z,9.711683
2022-10-30T07:51:37.125Z,9.711699
2022-10-30T07:52:37.137Z,9.711668
2022-10-30T07:53:37.108Z,9.711847
2022-10-30T07:54:37.115Z,9.711919
2022-10-30T07:55:37.113Z,9.711951
2022-10-30T07:56:37.096Z,9.711610
2022-10-30T07:57:37.079Z,9.712028
2022-10-30T07:58:41.242Z,9.712128
2022-10-30T07:59:38.115Z,9.712153
2022-10-30T08:00:37.060Z,9.712358
2022-10-30T08:01:37.190Z,9.712314
2022-10-30T08:02:37.208Z,9.712241
2022-10-30T08:03:37.031Z,9.712156
2022-10-30T08:04:37.045Z,9.712141
2022-10-30T08:05:37.030Z,9.712322
2022-10-30T08:06:37.011Z,9.712169
2022-10-30T08:07:36.997Z,9.712177
2022-10-30T08:08:41.963Z,9.712137
2022-10-30T08:09:38.987Z,9.712115
2022-10-30T08:10:36.983Z,9.712132
2022-10-30T08:11:36.961Z,9.712177
2022-10-30T08:12:36.964Z,9.712555
2022-10-30T08:13:36.962Z,9.712436
2022-10-30T08:14:36.948Z,9.712612
2022-10-30T08:15:36.932Z,9.712430
2022-10-30T08:16:36.922Z,9.712432
2022-10-30T08:17:37.919Z,9.712365
2022-10-30T08:18:36.954Z,9.712552
2022-10-30T08:19:36.917Z,9.712362
2022-10-30T08:20:37.020Z,9.711815
2022-10-30T08:21:36.896Z,9.711766
2022-10-30T08:22:36.886Z,9.712071
2022-10-30T08:23:36.879Z,9.711948
2022-10-30T08:24:36.861Z,9.711697
2022-10-30T08:25:36.854Z,9.711670
2022-10-30T08:26:36.848Z,9.711975
2022-10-30T08:27:37.555Z,9.712464
2022-10-30T08:28:36.825Z,9.712285
2022-10-30T08:29:36.819Z,9.712321
2022-10-30T08:30:36.816Z,9.711786
2022-10-30T08:31:36.809Z,9.711832
2022-10-30T08:32:36.819Z,9.711727
2022-10-30T08:33:36.787Z,9.711633
2022-10-30T08:34:36.783Z,9.711596
2022-10-30T08:36:36.766Z,9.711661
2022-10-30T08:37:36.758Z,9.711596
2022-10-30T08:38:36.746Z,9.711606
2022-10-30T08:39:36.745Z,9.711610
2022-10-30T08:40:36.738Z,9.711630
2022-10-30T08:41:36.728Z,9.711664
2022-10-30T08:42:36.723Z,9.711689
2022-10-30T08:43:36.710Z,9.711642
2022-10-30T08:44:36.741Z,9.711640
2022-10-30T08:45:36.689Z,9.711639
2022-10-30T08:46:36.697Z,9.711708
2022-10-30T08:47:36.672Z,9.711705
2022-10-30T08:48:36.671Z,9.711667
2022-10-30T08:49:36.664Z,9.711596
2022-10-30T08:50:36.648Z,9.711643
2022-10-30T08:51:36.646Z,9.711679
2022-10-30T08:52:37.566Z,9.711576
2022-10-30T08:53:36.614Z,9.711595
2022-10-30T08:54:37.622Z,9.711636
2022-10-30T08:55:36.619Z,9.711642
2022-10-30T08:56:36.609Z,9.711597
2022-10-30T08:57:36.604Z,9.711611
2022-10-30T08:58:37.171Z,9.711604
2022-10-30T08:59:36.582Z,9.711643
2022-10-30T09:00:36.593Z,9.711627
2022-10-30T09:01:36.765Z,9.711679
2022-10-30T09:02:37.274Z,9.711737
2022-10-30T09:03:36.541Z,9.711727
2022-10-30T09:04:36.568Z,9.711834
2022-10-30T09:05:36.526Z,9.711632
2022-10-30T09:06:36.525Z,9.711790
2022-10-30T09:07:36.520Z,9.711587
2022-10-30T09:08:36.512Z,9.711872
2022-10-30T09:09:36.499Z,9.712050
2022-10-30T09:10:36.493Z,9.711761
2022-10-30T09:11:36.480Z,9.712017
2022-10-30T09:12:36.474Z,9.711808
2022-10-30T09:13:36.470Z,9.711727
2022-10-30T09:14:36.459Z,9.711961
2022-10-30T09:15:36.460Z,9.711904
2022-10-30T09:16:36.435Z,9.711836
2022-10-30T09:17:36.472Z,9.711774
2022-10-30T09:18:36.435Z,9.712280
2022-10-30T09:19:36.487Z,9.712461
2022-10-30T09:20:36.425Z,9.712181
2022-10-30T09:21:36.400Z,9.711938
2022-10-30T09:22:37.156Z,9.711637
2022-10-30T09:23:36.405Z,9.712354
2022-10-30T09:24:36.384Z,9.712053
2022-10-30T09:25:36.383Z,9.712263
2022-10-30T09:26:36.351Z,9.711952
2022-10-30T09:27:36.350Z,9.711777
2022-10-30T09:28:36.366Z,9.711963
2022-10-30T09:29:36.344Z,9.711823
2022-10-30T09:30:36.376Z,9.711788
2022-10-30T09:31:36.328Z,9.711795
2022-10-30T09:32:36.307Z,9.711893
2022-10-30T09:33:36.313Z,9.711637
2022-10-30T09:34:36.316Z,9.711679
2022-10-30T09:35:36.302Z,9.711727
2022-10-30T09:36:36.285Z,9.711789
2022-10-30T09:37:36.280Z,9.711903
2022-10-30T09:38:36.272Z,9.711864
2022-10-30T09:39:36.277Z,9.711873
2022-10-30T09:40:36.263Z,9.711830
2022-10-30T09:41:36.232Z,9.711903
2022-10-30T09:42:36.249Z,9.711863
2022-10-30T09:43:36.222Z,9.711842
2022-10-30T09:44:36.214Z,9.711825
2022-10-30T09:45:36.227Z,9.711946
2022-10-30T09:46:36.206Z,9.712111
2022-10-30T09:47:36.200Z,9.711921
2022-10-30T09:48:36.186Z,9.712047
2022-10-30T09:49:36.200Z,9.712111
2022-10-30T09:50:38.938Z,9.712049
2022-10-30T09:51:36.215Z,9.711873
2022-10-30T09:52:36.151Z,9.711883
2022-10-30T09:53:36.181Z,9.711843
2022-10-30T09:54:36.141Z,9.711871
2022-10-30T09:55:37.046Z,9.711773
2022-10-30T09:56:36.120Z,9.711744
2022-10-30T09:57:36.106Z,9.711815
2022-10-30T09:58:36.123Z,9.711931
2022-10-30T09:59:36.096Z,9.711664
2022-10-30T10:00:36.079Z,9.711749
2022-10-30T10:01:36.239Z,9.711799
2022-10-30T10:02:36.171Z,9.711802
2022-10-30T10:03:36.066Z,9.711969
2022-10-30T10:04:36.048Z,9.711983
2022-10-30T10:05:36.076Z,9.711946
2022-10-30T10:06:36.038Z,9.711858
2022-10-30T10:07:36.046Z,9.711875
2022-10-30T10:08:36.024Z,9.711923
2022-10-30T10:09:36.035Z,9.711957
2022-10-30T10:10:36.001Z,9.711980
2022-10-30T10:11:35.997Z,9.711987
2022-10-30T10:12:35.992Z,9.712082
2022-10-30T10:13:36.026Z,9.711966
2022-10-30T10:14:35.975Z,9.711933
2022-10-30T10:15:35.978Z,9.711873
2022-10-30T10:16:35.968Z,9.711825
2022-10-30T10:17:35.945Z,9.711799
2022-10-30T10:18:35.948Z,9.711934
2022-10-30T10:19:35.937Z,9.711858
2022-10-30T10:20:35.970Z,9.711750
2022-10-30T10:21:35.923Z,9.711720
2022-10-30T10:22:35.942Z,9.711830
2022-10-30T10:23:35.907Z,9.711813
2022-10-30T10:24:35.898Z,9.711913
2022-10-30T10:25:36.686Z,9.711967
2022-10-30T10:26:36.589Z,9.711906
2022-10-30T10:27:35.881Z,9.711898
2022-10-30T10:28:36.863Z,9.711858
2022-10-30T10:29:35.885Z,9.711996
2022-10-30T10:30:35.866Z,9.711951
2022-10-30T10:31:35.883Z,9.711850
2022-10-30T10:32:35.836Z,9.711864
2022-10-30T10:33:35.832Z,9.711838
2022-10-30T10:34:35.819Z,9.711871
2022-10-30T10:35:35.806Z,9.711766
2022-10-30T10:36:35.803Z,9.711752
2022-10-30T10:37:35.799Z,9.711766
2022-10-30T10:38:35.789Z,9.711812
2022-10-30T10:39:35.778Z,9.711801
2022-10-30T10:40:35.777Z,9.711967
2022-10-30T10:41:35.763Z,9.712113
2022-10-30T10:42:35.741Z,9.712203
2022-10-30T10:43:35.798Z,9.712085
2022-10-30T10:44:35.744Z,9.711840
2022-10-30T10:45:35.730Z,9.712006
2022-10-30T10:46:35.731Z,9.711878
2022-10-30T10:47:35.698Z,9.711944
2022-10-30T10:48:35.707Z,9.711921
2022-10-30T10:49:39.057Z,9.711800
2022-10-30T10:50:36.690Z,9.711595
2022-10-30T10:51:35.694Z,9.711612
2022-10-30T10:52:35.663Z,9.711581
2022-10-30T10:53:35.664Z,9.711319
2022-10-30T10:54:35.657Z,9.711166
2022-10-30T10:55:36.673Z,9.711360
2022-10-30T10:56:35.646Z,9.711418
2022-10-30T10:57:35.634Z,9.711393
2022-10-30T10:58:35.648Z,9.711371
2022-10-30T10:59:35.612Z,9.711519
2022-10-30T11:00:35.851Z,9.711342
2022-10-30T11:01:35.746Z,9.711102
2022-10-30T11:02:35.741Z,9.711297
2022-10-30T11:03:35.602Z,9.711432
2022-10-30T11:04:37.179Z,9.711472
2022-10-30T11:05:35.594Z,9.711457
2022-10-30T11:06:35.562Z,9.711329
2022-10-30T11:07:35.548Z,9.711213
2022-10-30T11:08:35.564Z,9.711266
2022-10-30T11:09:35.546Z,9.711424
2022-10-30T11:10:35.533Z,9.711509
2022-10-30T11:11:35.516Z,9.712599
2022-10-30T11:12:36.525Z,9.713010
2022-10-30T11:13:35.520Z,9.712589
2022-10-30T11:14:35.542Z,9.712043
2022-10-30T11:15:35.490Z,9.711433
2022-10-30T11:16:35.484Z,9.711273
2022-10-30T11:17:35.476Z,9.711227
2022-10-30T11:18:35.474Z,9.711108
2022-10-30T11:19:35.453Z,9.711039
2022-10-30T11:20:35.512Z,9.711452
2022-10-30T11:21:35.448Z,9.711750
2022-10-30T11:22:35.429Z,9.711551
2022-10-30T11:23:35.430Z,9.711729
2022-10-30T11:24:35.416Z,9.711709
2022-10-30T11:25:35.415Z,9.711723
2022-10-30T11:26:35.411Z,9.711742
2022-10-30T11:27:35.425Z,9.711720
2022-10-30T11:28:35.369Z,9.711821
2022-10-30T11:29:36.370Z,9.711730
2022-10-30T11:30:35.372Z,9.711686
2022-10-30T11:31:35.369Z,9.711762
2022-10-30T11:32:35.424Z,9.711741
2022-10-30T11:33:35.351Z,9.711723
2022-10-30T11:34:35.345Z,9.711684
2022-10-30T11:35:35.321Z,9.711757
2022-10-30T11:36:35.322Z,9.711740
2022-10-30T11:37:35.310Z,9.711753
2022-10-30T11:38:35.322Z,9.711740
2022-10-30T11:39:35.304Z,9.711765
2022-10-30T11:40:35.284Z,9.711738
2022-10-30T11:41:35.298Z,9.711791
2022-10-30T11:42:35.268Z,9.711815
2022-10-30T11:43:35.300Z,9.711786
2022-10-30T11:44:35.258Z,9.711796
2022-10-30T11:45:35.267Z,9.711778
2022-10-30T11:46:35.235Z,9.711785
2022-10-30T11:48:36.245Z,9.711782
2022-10-30T11:49:35.213Z,9.711781
2022-10-30T11:50:35.207Z,9.711801
2022-10-30T11:51:35.744Z,9.711849
2022-10-30T11:52:35.205Z,9.711834
2022-10-30T11:53:35.196Z,9.711894